createdAt,value
2018-03-15T00:01:59.268Z,10.15
2018-03-15T00:04:34.244Z,11.85
2018-03-15T00:07:02.614Z,11.07
2018-03-15T00:09:30.856Z,10.30
2018-03-15T00:11:59.158Z,10.07
2018-03-15T00:14:27.422Z,10.35
2018-03-15T00:16:55.708Z,10.60
2018-03-15T00:19:23.964Z,9.88
2018-03-15T00:21:52.260Z,11.00
2018-03-15T00:24:20.512Z,11.35
2018-03-15T00:26:48.756Z,10.82
2018-03-15T00:29:17.005Z,10.85
2018-03-15T00:31:45.262Z,10.82
2018-03-15T00:34:13.515Z,10.52
2018-03-15T00:36:41.754Z,10.77
2018-03-15T00:39:09.996Z,9.77
2018-03-15T00:41:38.257Z,10.10
2018-03-15T00:44:06.534Z,11.07
2018-03-15T00:46:34.768Z,10.55
2018-03-15T00:49:03.807Z,11.10
2018-03-15T00:51:32.077Z,10.20
2018-03-15T00:54:00.316Z,10.43
2018-03-15T00:56:29.367Z,11.27
2018-03-15T00:58:57.612Z,12.07
2018-03-15T01:01:26.360Z,10.38
2018-03-15T01:03:54.685Z,10.25
2018-03-15T01:06:22.940Z,12.10
2018-03-15T01:08:51.179Z,10.73
2018-03-15T01:11:19.508Z,10.88
2018-03-15T01:13:47.748Z,11.32
2018-03-15T01:16:16.760Z,9.63
2018-03-15T01:18:45.005Z,10.45
2018-03-15T01:21:13.264Z,10.55
2018-03-15T01:23:43.012Z,10.18
2018-03-15T01:26:11.249Z,11.48
2018-03-15T01:28:39.496Z,10.80
2018-03-15T01:31:07.861Z,14.15
2018-03-15T01:33:36.108Z,14.77
2018-03-15T01:36:05.134Z,13.60
2018-03-15T01:38:33.414Z,12.20
2018-03-15T01:41:01.680Z,12.48
2018-03-15T01:43:29.968Z,12.90
2018-03-15T01:45:58.249Z,13.30
2018-03-15T01:48:26.488Z,13.57
2018-03-15T01:50:54.780Z,13.40
2018-03-15T01:53:23.057Z,14.57
2018-03-15T01:55:51.334Z,13.80
2018-03-15T01:58:19.614Z,16.77
2018-03-15T02:00:47.861Z,15.68
2018-03-15T02:03:16.096Z,16.65
2018-03-15T02:05:44.437Z,16.12
2018-03-15T02:08:12.669Z,16.67
2018-03-15T02:10:41.700Z,16.48
2018-03-15T02:13:10.856Z,17.00
2018-03-15T02:15:39.902Z,16.60
2018-03-15T02:18:08.144Z,17.20
2018-03-15T02:20:36.450Z,16.98
2018-03-15T02:23:04.696Z,18.17
2018-03-15T02:25:32.955Z,19.58
2018-03-15T02:28:01.992Z,18.75
2018-03-15T02:30:30.276Z,17.42
2018-03-15T02:32:58.534Z,16.42
2018-03-15T02:35:26.780Z,17.55
2018-03-15T02:37:55.813Z,15.50
2018-03-15T02:40:24.088Z,17.77
2018-03-15T02:42:52.361Z,15.38
2018-03-15T02:45:20.609Z,18.45
2018-03-15T02:47:48.927Z,18.73
2018-03-15T02:50:17.194Z,18.05
2018-03-15T02:52:45.469Z,17.65
2018-03-15T02:55:13.746Z,18.23
2018-03-15T02:57:42.002Z,17.85
2018-03-15T03:00:10.284Z,20.73
2018-03-15T03:02:38.570Z,19.75
2018-03-15T03:05:06.915Z,20.98
2018-03-15T03:07:35.192Z,20.15
2018-03-15T03:10:03.493Z,22.45
2018-03-15T03:12:31.870Z,21.02
2018-03-15T03:15:00.129Z,20.70
2018-03-15T03:17:28.422Z,22.13
2018-03-15T03:19:56.677Z,20.88
2018-03-15T03:22:24.934Z,20.20
2018-03-15T03:24:53.958Z,20.02
2018-03-15T03:27:22.241Z,20.67
2018-03-15T03:29:50.516Z,19.50
2018-03-15T03:32:18.765Z,21.20
2018-03-15T03:34:47.018Z,20.02
2018-03-15T03:37:16.062Z,22.62
2018-03-15T03:39:44.349Z,24.45
2018-03-15T03:42:12.610Z,25.80
2018-03-15T03:44:40.877Z,23.02
2018-03-15T03:47:09.117Z,24.20
2018-03-15T03:49:38.149Z,25.83
2018-03-15T03:52:06.402Z,22.15
2018-03-15T03:54:34.644Z,21.55
2018-03-15T03:57:02.893Z,20.17
2018-03-15T03:59:31.149Z,21.05
2018-03-15T04:01:59.425Z,21.02
2018-03-15T04:04:27.668Z,20.33
2018-03-15T04:06:56.696Z,20.33
2018-03-15T04:09:24.969Z,20.67
2018-03-15T04:11:53.241Z,18.75
2018-03-15T04:14:21.517Z,20.80
2018-03-15T04:16:49.774Z,19.42
2018-03-15T04:19:18.069Z,17.95
2018-03-15T04:21:46.321Z,19.00
2018-03-15T04:24:14.578Z,20.40
2018-03-15T04:26:43.593Z,19.73
2018-03-15T04:29:11.837Z,20.62
2018-03-15T04:31:40.077Z,21.15
2018-03-15T04:34:08.328Z,21.62
2018-03-15T04:36:36.576Z,21.27
2018-03-15T04:39:05.592Z,22.85
2018-03-15T04:41:33.832Z,21.23
2018-03-15T04:44:02.849Z,21.52
2018-03-15T04:46:31.089Z,21.98
2018-03-15T04:48:59.337Z,21.23
2018-03-15T04:51:27.602Z,21.58
2018-03-15T04:53:55.873Z,21.55
2018-03-15T04:56:24.986Z,20.25
2018-03-15T04:58:53.340Z,20.75
2018-03-15T05:01:21.588Z,19.12
2018-03-15T05:03:49.850Z,20.00
2018-03-15T05:06:18.885Z,18.23
2018-03-15T05:08:47.265Z,19.48
2018-03-15T05:11:15.518Z,18.08
2018-03-15T05:13:43.815Z,15.68
2018-03-15T05:16:12.099Z,19.37
2018-03-15T05:18:40.343Z,18.35
2018-03-15T05:21:08.647Z,16.75
2018-03-15T05:23:36.890Z,17.70
2018-03-15T05:26:05.141Z,19.25
2018-03-15T05:28:33.400Z,18.12
2018-03-15T05:31:01.657Z,18.33
2018-03-15T05:33:30.593Z,21.35
2018-03-15T05:35:59.613Z,18.40
2018-03-15T05:38:27.861Z,18.85
2018-03-15T05:40:56.881Z,19.25
2018-03-15T05:43:25.172Z,19.60
2018-03-15T05:45:53.541Z,19.33
2018-03-15T05:48:21.821Z,19.87
2018-03-15T05:50:50.093Z,17.90
2018-03-15T05:53:18.351Z,19.48
2018-03-15T05:55:46.645Z,18.85
2018-03-15T05:58:14.897Z,18.17
2018-03-15T06:00:43.210Z,16.20
2018-03-15T06:03:11.467Z,18.20
2018-03-15T06:05:39.750Z,17.15
2018-03-15T06:08:08.010Z,18.20
2018-03-15T06:10:36.259Z,16.25
2018-03-15T06:13:05.298Z,14.87
2018-03-15T06:15:33.569Z,14.98
2018-03-15T06:18:01.865Z,15.90
2018-03-15T06:20:30.120Z,16.77
2018-03-15T06:22:58.364Z,16.50
2018-03-15T06:25:27.378Z,16.98
2018-03-15T06:27:55.662Z,15.70
2018-03-15T06:30:23.923Z,15.18
2018-03-15T06:32:52.223Z,15.00
2018-03-15T06:35:20.473Z,14.45
2018-03-15T06:37:48.718Z,13.88
2018-03-15T06:40:17.853Z,14.63
2018-03-15T06:42:46.097Z,14.63
2018-03-15T06:45:15.150Z,15.30
2018-03-15T06:47:43.396Z,14.68
2018-03-15T06:50:11.921Z,14.23
2018-03-15T06:52:40.257Z,14.63
2018-03-15T06:55:08.869Z,15.02
2018-03-15T06:57:37.093Z,14.35
2018-03-15T07:00:06.117Z,15.50
2018-03-15T07:02:34.360Z,16.05
2018-03-15T07:05:03.016Z,15.60
2018-03-15T07:07:31.271Z,15.07
2018-03-15T07:09:59.638Z,15.43
2018-03-15T07:12:27.903Z,16.65
2018-03-15T07:14:56.437Z,15.13
2018-03-15T07:17:25.447Z,16.42
2018-03-15T07:19:53.693Z,17.50
2018-03-15T07:22:22.713Z,17.15
2018-03-15T07:24:51.024Z,16.73
2018-03-15T07:27:19.269Z,16.92
2018-03-15T07:29:47.560Z,16.58
2018-03-15T07:32:15.824Z,16.73
2018-03-15T07:34:44.075Z,16.05
2018-03-15T07:37:13.099Z,15.45
2018-03-15T07:39:41.384Z,14.85
2018-03-15T07:42:09.653Z,14.55
2018-03-15T07:44:37.947Z,15.80
2018-03-15T07:47:06.185Z,14.02
2018-03-15T07:49:34.432Z,15.27
2018-03-15T07:52:03.480Z,16.05
2018-03-15T07:54:31.739Z,16.10
2018-03-15T07:56:59.997Z,16.45
2018-03-15T07:59:28.251Z,14.93
2018-03-15T08:01:57.271Z,14.60
2018-03-15T08:04:26.292Z,15.95
2018-03-15T08:06:54.541Z,15.55
2018-03-15T08:09:22.780Z,14.38
2018-03-15T08:11:51.109Z,14.55
2018-03-15T08:14:19.349Z,14.13
2018-03-15T08:16:49.310Z,15.02
2018-03-15T08:19:17.631Z,14.50
2018-03-15T08:21:45.956Z,14.82
2018-03-15T08:24:14.246Z,12.85
2018-03-15T08:26:42.513Z,13.98
2018-03-15T08:29:10.827Z,14.73
2018-03-15T08:31:39.086Z,14.63
2018-03-15T08:34:07.359Z,14.00
2018-03-15T08:36:35.586Z,14.45
2018-03-15T08:39:03.837Z,14.43
2018-03-15T08:41:32.163Z,14.38
2018-03-15T08:44:00.445Z,13.98
2018-03-15T08:46:28.681Z,13.75
2018-03-15T08:48:56.984Z,13.30
2018-03-15T08:51:25.221Z,12.37
2018-03-15T08:53:54.237Z,14.25
2018-03-15T08:56:22.821Z,9.40
2018-03-15T08:58:51.065Z,14.25
2018-03-15T09:01:20.083Z,13.60
2018-03-15T09:03:48.326Z,14.82
2018-03-15T09:06:16.608Z,14.50
2018-03-15T09:08:44.905Z,14.32
2018-03-15T09:11:13.103Z,14.65
2018-03-15T09:13:41.355Z,14.40
2018-03-15T09:16:09.668Z,15.98
2018-03-15T09:18:37.899Z,16.12
2018-03-15T09:21:06.552Z,17.55
2018-03-15T09:23:34.800Z,17.58
2018-03-15T09:26:03.076Z,12.23
2018-03-15T09:28:31.338Z,16.75
2018-03-15T09:30:59.581Z,15.30
2018-03-15T09:33:27.894Z,15.77
2018-03-15T09:35:56.147Z,17.20
2018-03-15T09:38:24.401Z,16.15
2018-03-15T09:40:53.417Z,17.33
2018-03-15T09:43:21.720Z,15.88
2018-03-15T09:45:49.961Z,17.25
2018-03-15T09:48:18.201Z,16.62
2018-03-15T09:50:46.529Z,16.42
2018-03-15T09:53:14.805Z,17.42
2018-03-15T09:55:43.063Z,16.60
2018-03-15T09:58:11.375Z,16.60
2018-03-15T10:00:39.617Z,16.17
2018-03-15T10:03:07.869Z,15.23
2018-03-15T10:05:36.877Z,15.30
2018-03-15T10:08:05.182Z,17.20
2018-03-15T10:10:33.425Z,18.90
2018-03-15T10:13:01.730Z,17.70
2018-03-15T10:15:30.000Z,18.92
2018-03-15T10:17:58.250Z,18.98
2018-03-15T10:20:26.595Z,19.20
2018-03-15T10:22:55.655Z,20.35
2018-03-15T10:25:26.395Z,21.75
2018-03-15T10:27:52.198Z,20.48
2018-03-15T10:30:20.442Z,20.88
2018-03-15T10:32:55.357Z,22.77
2018-03-15T10:35:28.497Z,22.13
2018-03-15T10:37:56.774Z,23.35
2018-03-15T10:40:25.051Z,23.52
2018-03-15T10:42:53.316Z,24.23
2018-03-15T10:45:21.603Z,23.55
2018-03-15T10:47:49.863Z,21.00
2018-03-15T10:50:18.102Z,25.42
2018-03-15T10:52:47.118Z,24.92
2018-03-15T10:55:15.368Z,25.23
2018-03-15T10:57:43.613Z,23.83
2018-03-15T11:00:11.849Z,23.73
2018-03-15T11:02:45.866Z,25.42
2018-03-15T11:05:19.840Z,23.90
2018-03-15T11:07:54.585Z,23.48
2018-03-15T11:10:22.848Z,24.12
2018-03-15T11:12:51.896Z,21.30
2018-03-15T11:15:20.097Z,24.37
2018-03-15T11:17:48.425Z,24.95
2018-03-15T11:20:16.677Z,23.58
2018-03-15T11:22:45.023Z,24.20
2018-03-15T11:25:13.844Z,24.63
2018-03-15T11:27:46.159Z,24.23
2018-03-15T11:30:14.415Z,24.12
2018-03-15T11:32:43.139Z,22.33
2018-03-15T11:35:11.380Z,24.35
2018-03-15T11:37:39.620Z,22.92
2018-03-15T11:40:07.894Z,24.12
2018-03-15T11:42:36.193Z,24.60
2018-03-15T11:45:04.447Z,24.85
2018-03-15T11:47:32.701Z,23.23
2018-03-15T11:50:01.717Z,23.17
2018-03-15T11:52:29.971Z,24.37
2018-03-15T11:54:58.977Z,24.23
2018-03-15T11:57:27.285Z,26.05
2018-03-15T11:59:55.557Z,24.35
2018-03-15T12:02:23.810Z,22.55
2018-03-15T12:04:52.060Z,24.60
2018-03-15T12:07:20.389Z,22.85
2018-03-15T12:09:48.661Z,22.75
2018-03-15T12:12:16.909Z,24.63
2018-03-15T12:14:45.164Z,22.17
2018-03-15T12:17:14.202Z,24.08
2018-03-15T12:19:42.437Z,24.95
2018-03-15T12:22:11.465Z,21.87
2018-03-15T12:24:39.740Z,22.92
2018-03-15T12:27:08.021Z,23.48
2018-03-15T12:29:36.921Z,21.87
2018-03-15T12:32:05.188Z,23.52
2018-03-15T12:34:33.433Z,24.37
2018-03-15T12:37:01.756Z,23.08
2018-03-15T12:39:30.001Z,19.60
2018-03-15T12:41:58.290Z,23.12
2018-03-15T12:44:26.542Z,21.80
2018-03-15T12:46:54.781Z,23.70
2018-03-15T12:49:23.119Z,22.30
2018-03-15T12:51:51.392Z,23.25
2018-03-15T12:54:19.677Z,23.90
2018-03-15T12:56:48.138Z,23.02
2018-03-15T12:59:17.129Z,24.30
2018-03-15T13:01:45.415Z,23.55
2018-03-15T13:04:13.671Z,24.10
2018-03-15T13:06:41.922Z,24.20
2018-03-15T13:09:10.937Z,25.90
2018-03-15T13:11:39.191Z,24.45
2018-03-15T13:14:08.253Z,24.25
2018-03-15T13:16:36.519Z,23.05
2018-03-15T13:19:04.883Z,21.95
2018-03-15T13:21:33.193Z,25.77
2018-03-15T13:24:01.409Z,22.60
2018-03-15T13:26:30.863Z,24.52
2018-03-15T13:28:59.101Z,24.08
2018-03-15T13:31:27.657Z,20.42
2018-03-15T13:33:55.897Z,24.02
2018-03-15T13:36:24.145Z,23.83
2018-03-15T13:38:52.410Z,20.25
2018-03-15T13:41:20.683Z,24.35
2018-03-15T13:43:48.929Z,21.98
2018-03-15T13:46:17.967Z,23.35
2018-03-15T13:48:46.222Z,21.02
2018-03-15T13:51:14.505Z,22.90
2018-03-15T13:53:42.783Z,21.62
2018-03-15T13:56:11.168Z,21.75
2018-03-15T13:58:39.406Z,21.48
2018-03-15T14:01:07.814Z,22.37
2018-03-15T14:03:36.065Z,22.13
2018-03-15T14:06:04.368Z,22.27
2018-03-15T14:08:32.622Z,20.40
2018-03-15T14:11:00.914Z,20.20
2018-03-15T14:13:29.199Z,21.25
2018-03-15T14:15:57.479Z,19.45
2018-03-15T14:18:25.745Z,20.88
2018-03-15T14:20:53.985Z,21.85
2018-03-15T14:23:23.010Z,20.85
2018-03-15T14:25:51.296Z,20.40
2018-03-15T14:28:19.679Z,20.45
2018-03-15T14:30:47.947Z,20.83
2018-03-15T14:33:16.208Z,20.20
2018-03-15T14:35:44.488Z,19.45
2018-03-15T14:38:12.770Z,19.45
2018-03-15T14:40:41.047Z,19.17
2018-03-15T14:43:09.322Z,18.25
2018-03-15T14:45:37.591Z,19.25
2018-03-15T14:48:05.836Z,17.45
2018-03-15T14:50:34.081Z,17.37
2018-03-15T14:53:02.330Z,18.15
2018-03-15T14:55:30.699Z,18.30
2018-03-15T14:57:58.994Z,18.20
2018-03-15T15:00:27.192Z,18.15
2018-03-15T15:02:55.527Z,17.35
2018-03-15T15:05:23.769Z,18.15
2018-03-15T15:07:52.074Z,16.80
2018-03-15T15:10:20.316Z,16.45
2018-03-15T15:12:48.652Z,18.85
2018-03-15T15:15:16.869Z,17.27
2018-03-15T15:17:45.132Z,18.05
2018-03-15T15:20:14.133Z,17.83
2018-03-15T15:22:42.442Z,17.52
2018-03-15T15:25:10.714Z,17.50
2018-03-15T15:27:38.988Z,17.83
2018-03-15T15:30:07.268Z,16.87
2018-03-15T15:32:35.547Z,17.90
2018-03-15T15:35:03.786Z,17.75
2018-03-15T15:37:32.825Z,16.60
2018-03-15T15:40:01.071Z,17.30
2018-03-15T15:42:29.321Z,17.50
2018-03-15T15:44:58.131Z,17.30
2018-03-15T15:47:26.503Z,17.15
2018-03-15T15:49:54.801Z,19.10
2018-03-15T15:52:23.041Z,21.12
2018-03-15T15:54:52.076Z,20.27
2018-03-15T15:57:20.331Z,21.52
2018-03-15T15:59:48.577Z,22.75
2018-03-15T16:02:17.586Z,21.50
2018-03-15T16:04:45.885Z,21.73
2018-03-15T16:07:14.126Z,22.55
2018-03-15T16:09:43.145Z,22.90
2018-03-15T16:12:11.475Z,22.00
2018-03-15T16:14:39.805Z,21.80
2018-03-15T16:17:08.049Z,21.77
2018-03-15T16:19:37.079Z,21.20
2018-03-15T16:22:05.359Z,21.70
2018-03-15T16:24:33.635Z,22.52
2018-03-15T16:27:02.833Z,20.58
2018-03-15T16:29:31.107Z,22.37
2018-03-15T16:31:59.353Z,20.98
2018-03-15T16:34:27.593Z,21.17
2018-03-15T16:36:56.644Z,18.90
2018-03-15T16:39:24.926Z,19.42
2018-03-15T16:41:53.179Z,20.12
2018-03-15T16:44:21.474Z,21.75
2018-03-15T16:46:50.525Z,21.70
2018-03-15T16:49:20.238Z,21.20
2018-03-15T16:51:49.267Z,22.05
2018-03-15T16:54:17.536Z,22.90
2018-03-15T16:56:45.835Z,23.98
2018-03-15T16:59:14.064Z,24.08
2018-03-15T17:01:42.379Z,22.27
2018-03-15T17:04:10.620Z,23.23
2018-03-15T17:06:39.123Z,21.98
2018-03-15T17:09:07.396Z,22.85
2018-03-15T17:11:35.669Z,21.27
2018-03-15T17:14:03.945Z,20.73
2018-03-15T17:16:32.231Z,22.58
2018-03-15T17:19:00.487Z,22.55
2018-03-15T17:21:28.729Z,21.58
2018-03-15T17:23:57.741Z,21.45
2018-03-15T17:26:26.041Z,21.25
2018-03-15T17:28:54.317Z,23.25
2018-03-15T17:31:22.599Z,23.25
2018-03-15T17:33:50.865Z,22.27
2018-03-15T17:36:19.109Z,22.62
2018-03-15T17:38:48.129Z,21.98
2018-03-15T17:41:16.379Z,21.45
2018-03-15T17:43:45.446Z,20.73
2018-03-15T17:46:13.677Z,22.02
2018-03-15T17:48:41.963Z,19.02
2018-03-15T17:51:10.229Z,21.25
2018-03-15T17:53:38.478Z,20.30
2018-03-15T17:56:06.781Z,22.70
2018-03-15T17:58:35.057Z,21.23
2018-03-15T18:01:03.345Z,21.23
2018-03-15T18:03:31.585Z,21.65
2018-03-15T18:05:59.885Z,21.27
2018-03-15T18:08:28.165Z,23.90
2018-03-15T18:10:56.448Z,22.27
2018-03-15T18:13:24.697Z,23.38
2018-03-15T18:15:53.048Z,23.52
2018-03-15T18:18:21.261Z,21.60
2018-03-15T18:20:49.512Z,22.85
2018-03-15T18:23:17.809Z,24.30
2018-03-15T18:25:46.074Z,23.92
2018-03-15T18:28:14.321Z,21.37
2018-03-15T18:30:43.333Z,22.67
2018-03-15T18:33:11.582Z,24.40
2018-03-15T18:35:40.632Z,21.95
2018-03-15T18:38:09.044Z,22.92
2018-03-15T18:40:37.315Z,23.95
2018-03-15T18:43:07.065Z,23.90
2018-03-15T18:45:35.305Z,21.80
2018-03-15T18:48:03.609Z,21.45
2018-03-15T18:50:31.914Z,22.40
2018-03-15T18:53:00.186Z,24.92
2018-03-15T18:55:28.470Z,22.30
2018-03-15T18:57:56.713Z,24.00
2018-03-15T19:00:25.014Z,22.30
2018-03-15T19:02:53.303Z,25.20
2018-03-15T19:05:21.565Z,25.85
2018-03-15T19:07:49.933Z,25.25
2018-03-15T19:10:18.833Z,25.77
2018-03-15T19:12:47.069Z,25.83
2018-03-15T19:15:16.111Z,27.30
2018-03-15T19:17:44.365Z,26.92
2018-03-15T19:20:12.622Z,26.98
2018-03-15T19:22:41.754Z,25.20
2018-03-15T19:25:10.005Z,23.85
2018-03-15T19:27:38.248Z,25.30
2018-03-15T19:30:06.509Z,26.20
2018-03-15T19:32:34.768Z,26.15
2018-03-15T19:35:03.132Z,25.37
2018-03-15T19:37:31.369Z,26.12
2018-03-15T19:40:00.401Z,27.48
2018-03-15T19:42:28.651Z,27.70
2018-03-15T19:44:56.905Z,28.20
2018-03-15T19:47:25.981Z,28.90
2018-03-15T19:49:54.207Z,27.13
2018-03-15T19:52:22.490Z,28.42
2018-03-15T19:54:50.734Z,30.27
2018-03-15T19:57:18.991Z,27.40
2018-03-15T19:59:48.009Z,29.87
2018-03-15T20:02:16.258Z,28.90
2018-03-15T20:04:45.275Z,27.80
2018-03-15T20:07:13.703Z,29.23
2018-03-15T20:09:41.926Z,31.83
2018-03-15T20:12:10.202Z,29.98
2018-03-15T20:14:38.504Z,31.30
2018-03-15T20:17:06.823Z,30.52
2018-03-15T20:19:35.057Z,30.40
2018-03-15T20:22:03.371Z,32.22
2018-03-15T20:24:32.491Z,31.73
2018-03-15T20:27:01.494Z,30.62
2018-03-15T20:29:35.379Z,32.30
2018-03-15T20:32:04.390Z,31.27
2018-03-15T20:34:32.651Z,30.90
2018-03-15T20:37:01.750Z,32.00
2018-03-15T20:42:35.826Z,32.50
2018-03-15T20:45:04.097Z,33.17
2018-03-15T20:47:38.064Z,33.92
2018-03-15T20:50:07.182Z,36.50
2018-03-15T20:52:36.877Z,34.42
2018-03-15T20:55:05.181Z,35.00
2018-03-15T20:57:33.421Z,35.75
2018-03-15T21:00:02.518Z,36.92
2018-03-15T21:02:30.717Z,35.30
2018-03-15T21:04:59.047Z,33.67
2018-03-15T21:07:27.290Z,34.65
2018-03-15T21:09:55.544Z,34.60
2018-03-15T21:12:23.795Z,36.72
2018-03-15T21:14:52.809Z,36.33
2018-03-15T21:17:21.102Z,36.05
2018-03-15T21:19:49.455Z,35.88
2018-03-15T21:22:17.745Z,37.42
2018-03-15T21:24:45.998Z,36.83
2018-03-15T21:27:14.298Z,35.72
2018-03-15T21:29:42.498Z,36.88
2018-03-15T21:32:10.846Z,37.38
2018-03-15T21:34:39.098Z,38.15
2018-03-15T21:37:07.346Z,38.05
2018-03-15T21:39:35.678Z,37.33
2018-03-15T21:42:03.954Z,36.22
2018-03-15T21:44:32.225Z,36.35
2018-03-15T21:47:00.502Z,39.33
2018-03-15T21:49:28.782Z,40.88
2018-03-15T21:51:57.038Z,38.88
2018-03-15T21:54:25.283Z,39.88
2018-03-15T21:56:54.305Z,38.10
2018-03-15T21:59:22.554Z,38.25
2018-03-15T22:01:51.600Z,37.03
2018-03-15T22:04:20.261Z,36.55
2018-03-15T22:06:49.676Z,40.22
2018-03-15T22:09:17.973Z,38.60
2018-03-15T22:11:46.258Z,38.92
2018-03-15T22:14:14.541Z,40.10
2018-03-15T22:16:42.816Z,40.90
2018-03-15T22:19:11.665Z,40.83
2018-03-15T22:21:39.998Z,39.03
2018-03-15T22:24:08.372Z,40.88
2018-03-15T22:26:36.664Z,38.75
2018-03-15T22:29:05.741Z,40.90
2018-03-15T22:31:34.128Z,38.03
2018-03-15T22:34:02.417Z,39.65
2018-03-15T22:36:30.776Z,38.78
2018-03-15T22:38:59.043Z,37.92
2018-03-15T22:41:27.320Z,41.30
2018-03-15T22:43:55.723Z,38.22
2018-03-15T22:46:23.978Z,39.35
2018-03-15T22:48:52.246Z,39.40
2018-03-15T22:51:20.623Z,44.08
2018-03-15T22:53:48.903Z,40.38
2018-03-15T22:56:17.181Z,40.45
2018-03-15T22:58:45.452Z,40.78
2018-03-15T23:01:13.836Z,39.50
2018-03-15T23:03:42.212Z,41.85
2018-03-15T23:06:10.491Z,42.78
2018-03-15T23:08:38.763Z,39.33
2018-03-15T23:11:07.145Z,41.03
2018-03-15T23:13:35.516Z,42.33
2018-03-15T23:16:03.798Z,41.65
2018-03-15T23:18:32.172Z,42.75
2018-03-15T23:21:00.473Z,38.97
2018-03-15T23:23:29.520Z,42.90
2018-03-15T23:25:57.802Z,42.38
2018-03-15T23:28:26.087Z,44.10
2018-03-15T23:30:54.462Z,43.30
2018-03-15T23:33:22.752Z,41.58
2018-03-15T23:35:51.026Z,46.37
2018-03-15T23:38:20.811Z,39.75
2018-03-15T23:40:49.089Z,41.05
2018-03-15T23:43:17.363Z,44.03
2018-03-15T23:45:45.644Z,41.83
2018-03-15T23:48:13.926Z,43.58
2018-03-15T23:50:42.203Z,41.85
2018-03-15T23:53:10.579Z,44.05
2018-03-15T23:55:38.958Z,43.63
2018-03-15T23:58:07.264Z,44.20
